FMST

Toliara Airport

Madagascar
TAF FMST 201700Z 2018/2118 20006KT 9999 SCT020CB SCT040 PROB30 TEMPO 2018/2104 VRB15G25KT 4000 TSRA BECMG 2104/2107 14012KT FEW020 SCT040 BECMG 2109/2112 FEW020CB SCT040 PROB30 TEMPO 2110/2116 TSRA
Issued Valid From Valid To
Jan-20 @ 17:00 UTC
(4 hours ago)
Jan-20 @ 18:00 UTC
(3 hours ago)
Jan-21 @ 18:00 UTC
(in 21 hours)
Jan-20 @ 18:00 to Jan-21 @ 04:00
TAF FMST 201700Z 2018/2118 20006KT 9999 SCT020CB SCT040
Wind Visibility Clouds
200° at 6 knots 10,000+ meters
  • Scattered at 2,000' AGL
  • Scattered at 4,000' AGL
Temporary  (Probability 30%) Jan-20 @ 18:00 to Jan-21 @ 04:00
PROB30 TEMPO 2018/2104 VRB15G25KT 4000 TSRA
Wind Visibility Conditions
Variable at 15 knots
 Gusting to 25 knots
4,007 meters
  • Thunderstorm
  • Rain
Becoming Jan-21 @ 04:00 to Jan-21 @ 09:00
BECMG 2104/2107 14012KT FEW020 SCT040
Wind Visibility Clouds
140° at 12 knots 10,000+ meters
  • Few at 2,000' AGL
  • Scattered at 4,000' AGL
Becoming Jan-21 @ 09:00 to Jan-21 @ 18:00
BECMG 2109/2112 FEW020CB SCT040
Wind Visibility Clouds
140° at 12 knots 10,000+ meters
  • Few at 2,000' AGL
  • Scattered at 4,000' AGL
Temporary  (Probability 30%) Jan-21 @ 10:00 to Jan-21 @ 16:00
PROB30 TEMPO 2110/2116 TSRA
Conditions
  • Thunderstorm
  • Rain
TAF FMST 201700Z 2018/2118 20006KT 9999 SCT020CB SCT040 PROB30 TEMPO 2018/2104 VRB15G25KT 4000 TSRA BECMG 2104/2107 14012KT FEW020 SCT040 BECMG 2109/2112 FEW020CB SCT040 PROB30 TEMPO 2110/2116 TSRA
Issued Jan-20 @ 17:00 UTC
(4 hours ago)
Valid From Jan-20 @ 18:00 UTC
(3 hours ago)
Valid To Jan-21 @ 18:00 UTC
(in 21 hours)
Jan-20 @ 18:00 - Jan-21 @ 04:00
Wind Visibility
200° at 6 knots 10,000+ meters
Clouds
  • Scattered at 2,000' AGL
  • Scattered at 4,000' AGL
Probability 30% Temporary Jan-20 @ 18:00 - Jan-21 @ 04:00
Wind Visibility
Variable at 15 knots
 Gusting to 25 knots
4,007 meters
Conditions
  • Thunderstorm
  • Rain
Becoming Jan-21 @ 04:00 - Jan-21 @ 09:00
Wind Visibility
140° at 12 knots 10,000+ meters
Clouds
  • Few at 2,000' AGL
  • Scattered at 4,000' AGL
Becoming Jan-21 @ 09:00 - Jan-21 @ 18:00
Wind Visibility
140° at 12 knots 10,000+ meters
Clouds
  • Few at 2,000' AGL
  • Scattered at 4,000' AGL
Probability 30% Temporary Jan-21 @ 10:00 - Jan-21 @ 16:00
Conditions
  • Thunderstorm
  • Rain